Time;durP1;ratioP1;P1;durP2;ratioP2;P2;SDS_P1;SDS_P2;PMS_P1;PMS_P2;Temp;Humidity;BMP_temperature;BMP_pressure;BME280_temperature;BME280_humidity;BME280_pressure;Samples;Min_cycle;Max_cycle;Signal;HPM_P1;HPM_P2
2021/08/31 00:02:21;;;;;;;3.90;2.40;;;17.70;75.90;;;;;;2360781;52;20978;-69
2021/08/31 00:04:48;;;;;;;4.75;3.05;;;17.70;75.90;;;;;;2351884;53;20905;-68
2021/08/31 00:07:14;;;;;;;6.65;3.47;;;17.70;75.90;;;;;;2359999;52;20953;-70
2021/08/31 00:09:40;;;;;;;5.00;3.40;;;17.70;76.00;;;;;;2608434;52;20954;-71
2021/08/31 00:12:07;;;;;;;5.25;3.45;;;17.70;76.00;;;;;;2338466;53;22017;-68
2021/08/31 00:14:38;;;;;;;5.15;3.22;;;17.80;76.10;;;;;;2374195;52;20941;-68
2021/08/31 00:17:06;;;;;;;4.55;2.95;;;17.80;76.10;;;;;;2356774;53;21469;-68
2021/08/31 00:19:32;;;;;;;4.90;3.00;;;17.80;76.00;;;;;;2356268;53;20937;-70
2021/08/31 00:22:02;;;;;;;5.05;3.40;;;17.80;76.10;;;;;;2356122;53;21894;-70
2021/08/31 00:24:29;;;;;;;5.43;3.53;;;17.80;76.10;;;;;;2436918;52;20987;-70
2021/08/31 00:26:56;;;;;;;5.43;3.05;;;17.80;76.10;;;;;;2606452;52;20922;-70
2021/08/31 00:29:23;;;;;;;5.45;3.40;;;17.90;76.20;;;;;;2355955;53;21002;-69
2021/08/31 00:31:50;;;;;;;6.47;4.22;;;17.90;76.30;;;;;;2400543;52;20941;-69
2021/08/31 00:34:16;;;;;;;5.37;3.08;;;17.90;76.30;;;;;;2366721;52;20943;-66
2021/08/31 00:36:43;;;;;;;7.28;3.28;;;17.90;76.30;;;;;;2360260;53;20994;-73
2021/08/31 00:39:09;;;;;;;5.32;3.47;;;18.00;76.40;;;;;;2527275;52;21002;-69
2021/08/31 00:41:38;;;;;;;4.50;2.70;;;18.00;76.40;;;;;;2355961;53;20937;-68
2021/08/31 00:44:04;;;;;;;4.20;2.65;;;18.10;76.50;;;;;;2360377;53;20930;-69
2021/08/31 00:46:31;;;;;;;5.07;3.08;;;18.00;76.40;;;;;;2354375;53;21013;-67
2021/08/31 00:48:57;;;;;;;5.30;3.35;;;18.00;76.40;;;;;;2359468;52;21400;-72
2021/08/31 00:51:24;;;;;;;5.00;3.30;;;18.00;76.40;;;;;;2356120;53;20926;-68
2021/08/31 00:53:53;;;;;;;4.22;2.80;;;18.10;76.40;;;;;;2505108;52;21965;-73
2021/08/31 00:56:20;;;;;;;4.43;3.10;;;18.10;76.40;;;;;;2336814;53;20954;-71
2021/08/31 00:58:48;;;;;;;5.43;3.20;;;18.10;76.30;;;;;;2452462;52;20970;-73
2021/08/31 01:01:14;;;;;;;5.47;3.47;;;18.10;76.20;;;;;;2359828;53;21027;-68
2021/08/31 01:03:41;;;;;;;4.30;2.83;;;18.10;76.90;;;;;;2350584;53;20973;-73
2021/08/31 01:06:08;;;;;;;5.55;3.35;;;18.20;76.30;;;;;;2348373;53;20994;-69
2021/08/31 01:08:34;;;;;;;4.22;2.60;;;18.20;76.30;;;;;;2356086;53;21128;-69
2021/08/31 01:11:01;;;;;;;4.82;3.33;;;18.20;76.30;;;;;;2356116;53;20942;-68
2021/08/31 01:13:29;;;;;;;5.03;3.05;;;18.20;76.30;;;;;;2606450;52;20949;-68
2021/08/31 01:15:56;;;;;;;4.87;3.00;;;18.20;76.30;;;;;;2356002;53;21421;-72
2021/08/31 01:18:23;;;;;;;6.62;3.20;;;18.20;76.30;;;;;;2377597;52;20989;-69
2021/08/31 01:20:50;;;;;;;4.62;3.33;;;18.20;76.30;;;;;;2336791;53;22009;-68
2021/08/31 01:23:16;;;;;;;6.10;3.20;;;18.20;76.30;;;;;;2367595;53;21155;-67
2021/08/31 01:25:44;;;;;;;4.50;3.10;;;18.20;76.30;;;;;;2342164;53;20990;-69
2021/08/31 01:28:23;;;;;;;4.80;3.10;;;18.20;76.20;;;;;;2509374;52;21035;-68
2021/08/31 01:30:50;;;;;;;5.28;3.17;;;18.30;76.10;;;;;;2607077;52;20957;-71
2021/08/31 01:33:17;;;;;;;4.95;3.15;;;18.30;76.20;;;;;;2360454;52;21544;-70
2021/08/31 01:35:44;;;;;;;4.50;2.92;;;18.20;76.20;;;;;;2356167;53;20926;-71
2021/08/31 01:38:10;;;;;;;6.37;3.05;;;18.30;76.20;;;;;;2479722;52;20994;-70
2021/08/31 01:40:37;;;;;;;5.37;3.72;;;18.30;76.20;;;;;;2355860;53;21351;-70
2021/08/31 01:43:03;;;;;;;4.72;3.20;;;18.30;76.20;;;;;;2355919;53;20937;-68
2021/08/31 01:45:48;;;;;;;4.43;2.80;;;18.30;76.20;;;;;;2356170;53;20942;-69
2021/08/31 01:48:14;;;;;;;5.18;2.72;;;18.30;75.90;;;;;;2365053;52;22141;-67
2021/08/31 01:50:41;;;;;;;4.12;2.80;;;18.30;76.30;;;;;;2360679;52;21850;-70
2021/08/31 01:53:07;;;;;;;4.15;2.40;;;18.30;76.30;;;;;;2355726;53;21068;-69
2021/08/31 01:55:34;;;;;;;3.87;2.53;;;18.40;76.40;;;;;;2355794;53;21609;-69
2021/08/31 01:58:00;;;;;;;5.10;2.83;;;18.30;76.30;;;;;;2607249;52;22124;-67
2021/08/31 02:00:27;;;;;;;4.72;3.03;;;18.30;76.20;;;;;;2355699;53;20945;-72
2021/08/31 02:02:53;;;;;;;4.70;2.87;;;18.30;76.30;;;;;;2506523;52;21061;-70
2021/08/31 02:05:21;;;;;;;8.18;2.87;;;18.30;76.30;;;;;;2545752;52;20970;-69
2021/08/31 02:07:47;;;;;;;7.15;3.55;;;18.30;76.30;;;;;;2606073;52;20890;-70
2021/08/31 02:10:14;;;;;;;6.15;3.58;;;18.40;76.40;;;;;;2360954;52;21343;-72
2021/08/31 02:12:40;;;;;;;5.50;3.10;;;18.40;76.40;;;;;;2469641;52;20963;-68
2021/08/31 02:15:08;;;;;;;5.40;3.53;;;18.40;76.30;;;;;;2357185;53;20926;-68
2021/08/31 02:17:35;;;;;;;6.37;3.80;;;18.40;76.30;;;;;;2384182;52;20942;-69
2021/08/31 02:20:04;;;;;;;5.12;3.25;;;18.40;76.30;;;;;;2364512;52;20950;-69
2021/08/31 02:22:31;;;;;;;6.57;3.30;;;18.40;76.30;;;;;;2487823;52;20942;-74
2021/08/31 02:24:57;;;;;;;4.82;2.97;;;18.40;76.20;;;;;;2360428;53;20990;-70
2021/08/31 02:27:24;;;;;;;5.12;2.72;;;18.40;76.20;;;;;;2606410;52;20917;-67
2021/08/31 02:29:51;;;;;;;4.93;2.70;;;18.40;76.20;;;;;;2356102;53;20938;-68
2021/08/31 02:32:18;;;;;;;4.60;2.90;;;18.40;76.20;;;;;;2606417;52;21017;-72
2021/08/31 02:34:46;;;;;;;5.22;2.80;;;18.40;76.30;;;;;;2460695;52;20965;-71
2021/08/31 02:37:13;;;;;;;5.25;2.90;;;18.40;76.30;;;;;;2409963;52;20981;-69
2021/08/31 02:39:40;;;;;;;5.50;3.62;;;18.40;76.40;;;;;;2362695;53;21002;-70
2021/08/31 02:42:07;;;;;;;5.93;4.05;;;18.40;76.40;;;;;;2398794;52;21487;-68
2021/08/31 02:44:33;;;;;;;5.82;4.22;;;18.40;76.30;;;;;;2356138;53;21023;-67
2021/08/31 02:46:59;;;;;;;6.00;3.85;;;18.40;76.40;;;;;;2606958;52;22095;-71
2021/08/31 02:49:26;;;;;;;5.93;3.90;;;18.50;76.50;;;;;;2356285;53;21029;-69
2021/08/31 02:51:52;;;;;;;5.78;3.97;;;18.50;76.50;;;;;;2497198;52;21061;-67
2021/08/31 02:54:19;;;;;;;5.53;3.70;;;18.50;76.50;;;;;;2363353;52;20965;-71
2021/08/31 02:56:46;;;;;;;5.22;3.28;;;18.50;76.50;;;;;;2360498;53;21019;-69
2021/08/31 02:59:13;;;;;;;5.37;3.10;;;18.50;76.60;;;;;;2354655;53;20938;-69
2021/08/31 03:04:26;;;;;;;5.15;3.15;;;18.50;76.50;;;;;;2579143;52;21528;-70
2021/08/31 03:06:55;;;;;;;5.80;3.70;;;18.50;76.40;;;;;;2607325;52;21041;-69
2021/08/31 03:09:22;;;;;;;6.90;3.78;;;18.60;76.40;;;;;;2356355;53;21000;-69
2021/08/31 03:11:48;;;;;;;5.43;3.72;;;18.50;76.30;;;;;;2607405;52;22044;-69
2021/08/31 03:14:19;;;;;;;4.68;3.05;;;18.50;76.20;;;;;;2356656;53;21041;-68
2021/08/31 03:16:49;;;;;;;5.37;3.42;;;18.60;76.30;;;;;;2607120;52;21452;-69
2021/08/31 03:19:17;;;;;;;5.80;3.62;;;18.50;76.10;;;;;;2360894;52;20983;-69
2021/08/31 03:21:43;;;;;;;5.55;3.50;;;18.60;76.20;;;;;;2356028;53;20938;-67
2021/08/31 03:24:10;;;;;;;4.68;3.08;;;18.50;76.20;;;;;;2356481;53;20930;-68
2021/08/31 03:26:36;;;;;;;5.60;3.40;;;18.60;76.30;;;;;;2607099;52;21823;-68
2021/08/31 03:29:02;;;;;;;4.30;2.83;;;18.50;76.20;;;;;;2356263;53;20993;-71
2021/08/31 03:31:29;;;;;;;6.25;3.17;;;18.50;76.20;;;;;;2406744;52;21714;-67
2021/08/31 03:33:55;;;;;;;4.97;2.70;;;18.50;76.20;;;;;;2335130;53;20996;-69
2021/08/31 03:36:23;;;;;;;5.85;3.33;;;18.50;76.20;;;;;;2394029;52;21412;-69
2021/08/31 03:38:51;;;;;;;5.18;3.37;;;18.50;76.10;;;;;;2355984;53;20984;-71
2021/08/31 03:41:20;;;;;;;6.68;4.20;;;18.50;76.10;;;;;;2355676;53;20926;-72
2021/08/31 03:43:46;;;;;;;7.65;3.12;;;18.60;76.10;;;;;;2356167;53;21263;-70
2021/08/31 03:46:15;;;;;;;4.82;2.87;;;18.50;76.00;;;;;;2355966;53;20968;-70
2021/08/31 03:48:42;;;;;;;5.47;3.00;;;18.50;75.90;;;;;;2356117;53;20937;-70
2021/08/31 03:51:11;;;;;;;5.60;3.50;;;18.50;76.10;;;;;;2356573;53;20961;-69
2021/08/31 03:53:39;;;;;;;5.62;3.25;;;18.60;76.20;;;;;;2356758;53;20966;-67
2021/08/31 03:56:06;;;;;;;5.47;3.55;;;18.50;76.10;;;;;;2356487;53;20954;-69
2021/08/31 03:58:34;;;;;;;6.47;3.53;;;18.50;76.30;;;;;;2435670;52;21010;-70
2021/08/31 04:01:01;;;;;;;5.62;3.70;;;18.50;76.30;;;;;;2357189;53;20978;-68
2021/08/31 04:03:28;;;;;;;4.95;3.08;;;18.50;76.30;;;;;;2353841;53;20946;-69
2021/08/31 04:05:54;;;;;;;8.00;3.37;;;18.50;76.40;;;;;;2353324;52;22033;-69
2021/08/31 04:08:21;;;;;;;6.50;4.18;;;18.60;76.60;;;;;;2355398;53;22558;-68
2021/08/31 04:10:47;;;;;;;8.23;4.60;;;18.60;76.60;;;;;;2405280;52;21080;-67
2021/08/31 04:13:17;;;;;;;6.72;4.10;;;18.50;76.50;;;;;;2353575;52;21361;-69
2021/08/31 04:15:45;;;;;;;9.70;5.80;;;18.60;76.60;;;;;;2350906;53;21005;-71
2021/08/31 04:18:11;;;;;;;9.02;5.65;;;18.60;76.60;;;;;;2350763;53;21049;-73
2021/08/31 04:20:38;;;;;;;10.25;6.37;;;18.60;76.60;;;;;;2356672;53;20958;-70
2021/08/31 04:23:04;;;;;;;7.90;4.93;;;18.60;76.60;;;;;;2388229;53;20970;-72
2021/08/31 04:25:30;;;;;;;7.62;4.75;;;18.60;76.60;;;;;;2351065;53;20978;-69
2021/08/31 04:27:57;;;;;;;8.10;5.12;;;18.60;76.60;;;;;;2513551;52;20986;-70
2021/08/31 04:30:23;;;;;;;7.75;5.22;;;18.70;76.80;;;;;;2354824;53;21159;-71
2021/08/31 04:32:50;;;;;;;6.80;4.43;;;18.70;76.80;;;;;;2459838;52;21539;-69
2021/08/31 04:35:16;;;;;;;8.25;4.85;;;18.70;76.70;;;;;;2598089;52;20945;-71
2021/08/31 04:37:43;;;;;;;9.77;6.05;;;18.70;76.70;;;;;;2351376;53;20962;-68
2021/08/31 04:40:10;;;;;;;8.00;5.37;;;18.70;76.60;;;;;;2350977;53;22009;-70
2021/08/31 04:42:38;;;;;;;8.52;5.12;;;18.70;76.50;;;;;;2351146;53;20949;-69
2021/08/31 04:45:05;;;;;;;8.90;5.68;;;18.70;76.40;;;;;;2356105;52;21073;-69
2021/08/31 04:47:31;;;;;;;7.53;4.75;;;18.70;76.50;;;;;;2351053;53;21576;-71
2021/08/31 04:49:57;;;;;;;9.38;5.80;;;18.70;76.50;;;;;;2437293;52;20954;-69
2021/08/31 04:52:24;;;;;;;10.30;5.87;;;18.70;76.40;;;;;;2351300;53;20975;-72
2021/08/31 04:54:50;;;;;;;9.93;6.40;;;18.70;76.30;;;;;;2351397;53;21556;-70
2021/08/31 04:57:18;;;;;;;8.13;5.30;;;18.70;76.30;;;;;;2355863;52;21042;-68
2021/08/31 04:59:45;;;;;;;10.70;6.62;;;18.80;76.50;;;;;;2350559;53;20934;-72
2021/08/31 05:02:11;;;;;;;10.38;5.55;;;18.70;76.40;;;;;;2351030;53;20941;-71
2021/08/31 05:04:38;;;;;;;8.50;5.03;;;18.70;76.40;;;;;;2351227;53;21050;-68
2021/08/31 05:07:10;;;;;;;11.25;7.00;;;18.70;76.50;;;;;;2353426;53;21012;-69
2021/08/31 05:09:40;;;;;;;7.78;5.32;;;18.70;76.50;;;;;;2593467;52;20985;-72
2021/08/31 05:12:06;;;;;;;7.60;4.95;;;18.70;76.50;;;;;;2350850;53;20949;-70
2021/08/31 05:14:33;;;;;;;9.77;6.05;;;18.70;76.50;;;;;;2351135;53;20945;-68
2021/08/31 05:16:59;;;;;;;9.07;5.87;;;18.70;76.50;;;;;;2444305;52;21395;-68
2021/08/31 05:19:25;;;;;;;8.23;5.45;;;18.80;76.60;;;;;;2388390;52;21009;-70
2021/08/31 05:21:52;;;;;;;8.80;5.47;;;18.80;76.60;;;;;;2416829;52;21017;-70
2021/08/31 05:24:18;;;;;;;8.02;5.05;;;18.80;76.50;;;;;;2357387;53;21072;-68
2021/08/31 05:26:45;;;;;;;8.48;5.15;;;18.80;76.40;;;;;;2351321;53;20952;-70
2021/08/31 05:29:11;;;;;;;9.27;5.78;;;18.80;76.40;;;;;;2351227;52;21009;-70
2021/08/31 05:31:38;;;;;;;8.50;5.65;;;18.80;76.30;;;;;;2355421;52;21046;-70
2021/08/31 05:34:04;;;;;;;12.95;6.55;;;18.80;76.30;;;;;;2456146;52;21001;-69
2021/08/31 05:36:30;;;;;;;10.02;6.00;;;18.70;76.10;;;;;;2336528;53;20979;-71
2021/08/31 05:38:58;;;;;;;8.70;5.43;;;18.70;76.00;;;;;;2351193;53;20966;-70
2021/08/31 05:41:26;;;;;;;9.80;6.25;;;18.80;76.10;;;;;;2353728;53;20962;-70
2021/08/31 05:43:52;;;;;;;10.60;7.28;;;18.70;76.10;;;;;;2350404;53;20938;-69
2021/08/31 05:46:18;;;;;;;10.18;6.85;;;18.70;76.10;;;;;;2350977;53;20929;-68
2021/08/31 05:48:44;;;;;;;10.55;6.57;;;18.70;76.20;;;;;;2350766;53;21053;-69
2021/08/31 05:51:13;;;;;;;8.80;5.53;;;18.70;76.20;;;;;;2599975;52;20975;-73
2021/08/31 05:53:39;;;;;;;11.10;6.05;;;18.70;76.30;;;;;;2355322;52;21445;-69
2021/08/31 05:56:05;;;;;;;10.55;6.68;;;18.70;76.30;;;;;;2337347;53;20965;-68
2021/08/31 05:58:32;;;;;;;12.68;7.50;;;18.70;76.50;;;;;;2346025;53;20970;-72
2021/08/31 06:00:58;;;;;;;11.80;7.75;;;18.70;76.60;;;;;;2355807;53;20946;-68
2021/08/31 06:03:24;;;;;;;11.48;7.57;;;18.70;76.70;;;;;;2352162;53;20953;-72
2021/08/31 06:05:53;;;;;;;10.77;6.97;;;18.70;76.70;;;;;;2352395;53;20970;-68
2021/08/31 06:08:20;;;;;;;14.30;8.10;;;18.70;76.70;;;;;;2352336;53;20986;-69
2021/08/31 06:10:48;;;;;;;11.02;6.68;;;18.70;76.80;;;;;;2602687;52;22147;-68
2021/08/31 06:13:14;;;;;;;10.75;7.20;;;18.70;76.80;;;;;;2352196;53;20965;-71
2021/08/31 06:15:40;;;;;;;13.62;7.50;;;18.70;76.90;;;;;;2356469;52;20962;-69
2021/08/31 06:18:07;;;;;;;11.60;7.40;;;18.70;77.00;;;;;;2351897;53;20925;-68
2021/08/31 06:20:33;;;;;;;11.65;7.85;;;18.80;77.20;;;;;;2352341;53;20945;-68
2021/08/31 06:23:00;;;;;;;9.60;6.55;;;18.80;77.10;;;;;;2352258;53;20941;-70
2021/08/31 06:25:26;;;;;;;9.25;6.12;;;18.80;77.10;;;;;;2356381;52;20958;-69
2021/08/31 06:27:53;;;;;;;13.18;7.75;;;18.90;77.20;;;;;;2349700;53;21351;-72
2021/08/31 06:30:20;;;;;;;11.65;7.20;;;18.90;77.10;;;;;;2351490;53;21017;-72
2021/08/31 06:32:47;;;;;;;12.65;8.35;;;18.90;77.10;;;;;;2356167;52;20990;-70
2021/08/31 06:35:13;;;;;;;14.05;8.45;;;18.90;77.00;;;;;;2352163;53;20938;-70
2021/08/31 06:37:39;;;;;;;13.90;8.25;;;18.90;77.00;;;;;;2356766;52;21846;-70
2021/08/31 06:40:06;;;;;;;11.90;7.82;;;18.90;77.60;;;;;;2333548;53;20918;-72
2021/08/31 06:42:32;;;;;;;10.95;7.75;;;18.90;77.00;;;;;;2359835;53;21018;-70
2021/08/31 06:44:59;;;;;;;10.68;7.82;;;18.90;77.10;;;;;;2341184;53;21009;-71
2021/08/31 06:47:25;;;;;;;10.70;7.75;;;19.00;77.20;;;;;;2356957;52;20955;-70
2021/08/31 06:49:51;;;;;;;13.80;8.52;;;19.00;77.20;;;;;;2352129;53;21005;-70
2021/08/31 06:52:17;;;;;;;9.82;7.00;;;19.00;77.10;;;;;;2359668;53;20938;-69
2021/08/31 06:54:44;;;;;;;10.05;7.60;;;19.00;76.90;;;;;;2345877;53;20961;-70
2021/08/31 06:57:10;;;;;;;9.65;7.15;;;19.00;76.90;;;;;;2451719;52;20950;-72
2021/08/31 06:59:37;;;;;;;12.02;7.65;;;19.00;76.70;;;;;;2603484;52;20986;-72
2021/08/31 07:02:04;;;;;;;10.35;7.25;;;19.00;76.70;;;;;;2356001;52;20979;-70
2021/08/31 07:04:31;;;;;;;9.98;6.97;;;19.10;76.80;;;;;;2354525;52;20981;-69
2021/08/31 07:06:57;;;;;;;9.65;7.28;;;19.00;76.80;;;;;;2402879;52;20974;-72
2021/08/31 07:09:23;;;;;;;13.62;7.60;;;19.00;76.90;;;;;;2352435;53;21421;-70
2021/08/31 07:11:51;;;;;;;9.43;6.62;;;19.00;76.90;;;;;;2357208;52;21000;-70
2021/08/31 07:14:17;;;;;;;11.07;8.05;;;19.00;77.00;;;;;;2351418;53;22093;-69
2021/08/31 07:16:43;;;;;;;8.88;6.85;;;19.00;77.00;;;;;;2356664;52;20958;-69
2021/08/31 07:19:10;;;;;;;10.18;7.50;;;19.00;77.00;;;;;;2351924;53;20934;-69
2021/08/31 07:21:37;;;;;;;8.07;6.30;;;19.10;77.30;;;;;;2356215;52;21018;-70
2021/08/31 07:24:03;;;;;;;9.23;6.70;;;19.10;77.20;;;;;;2351618;53;21400;-69
2021/08/31 07:26:29;;;;;;;9.73;7.25;;;19.10;77.30;;;;;;2352043;53;20954;-69
2021/08/31 07:28:56;;;;;;;8.77;6.80;;;19.20;77.30;;;;;;2351274;53;20994;-69
2021/08/31 07:31:23;;;;;;;11.65;7.53;;;19.20;77.20;;;;;;2355205;52;20922;-72
2021/08/31 07:33:49;;;;;;;9.90;6.70;;;19.20;77.10;;;;;;2354801;52;20974;-69
2021/08/31 07:36:20;;;;;;;8.13;6.40;;;19.20;77.10;;;;;;2354719;53;20958;-70
2021/08/31 07:38:47;;;;;;;9.90;6.97;;;19.20;77.10;;;;;;2334525;53;22142;-69
2021/08/31 07:41:14;;;;;;;9.57;7.05;;;19.30;77.10;;;;;;2601442;52;20981;-72
2021/08/31 07:43:41;;;;;;;9.50;6.80;;;19.30;77.00;;;;;;2599689;52;21018;-70
2021/08/31 07:46:10;;;;;;;9.05;6.70;;;19.30;77.00;;;;;;2338517;52;21048;-68
2021/08/31 07:48:36;;;;;;;9.88;7.15;;;19.30;77.30;;;;;;2349530;53;21060;-70
2021/08/31 07:51:03;;;;;;;9.13;6.78;;;19.40;77.80;;;;;;2351156;53;21128;-72
2021/08/31 07:53:29;;;;;;;9.82;5.80;;;19.40;77.80;;;;;;2350687;53;20966;-71
2021/08/31 07:55:55;;;;;;;6.65;5.15;;;19.50;77.90;;;;;;2380416;52;20981;-68
2021/08/31 07:58:22;;;;;;;8.68;6.22;;;19.50;78.10;;;;;;2363158;52;20970;-69
2021/08/31 08:00:48;;;;;;;8.82;6.80;;;19.60;78.50;;;;;;2328217;53;21045;-71
2021/08/31 08:03:14;;;;;;;9.50;6.50;;;19.70;78.80;;;;;;2418733;52;20966;-71
2021/08/31 08:05:41;;;;;;;8.43;5.55;;;19.80;78.90;;;;;;2350040;52;21600;-70
2021/08/31 08:08:07;;;;;;;11.50;6.00;;;19.90;78.80;;;;;;2355194;53;20946;-71
2021/08/31 08:10:33;;;;;;;8.43;6.18;;;19.90;79.00;;;;;;2370848;52;21049;-71
2021/08/31 08:13:00;;;;;;;8.27;5.65;;;20.10;79.50;;;;;;2355804;52;20946;-71
2021/08/31 08:15:26;;;;;;;8.20;6.25;;;20.10;79.80;;;;;;2600932;52;20940;-70
2021/08/31 08:17:52;;;;;;;8.68;5.90;;;20.30;80.20;;;;;;2355347;52;20970;-71
2021/08/31 08:20:19;;;;;;;6.68;5.00;;;20.40;80.20;;;;;;2350287;53;20946;-70
2021/08/31 08:22:45;;;;;;;6.40;4.82;;;20.50;80.20;;;;;;2355005;53;20930;-73
2021/08/31 08:25:13;;;;;;;8.32;5.85;;;20.70;80.10;;;;;;2351362;53;21073;-71
2021/08/31 08:27:39;;;;;;;7.30;5.18;;;20.80;79.40;;;;;;2351000;53;22065;-71
2021/08/31 08:30:06;;;;;;;6.03;4.72;;;20.90;78.70;;;;;;2359844;52;20966;-72
2021/08/31 08:32:32;;;;;;;7.03;5.10;;;20.90;78.00;;;;;;2349121;53;21010;-70
2021/08/31 08:34:58;;;;;;;7.00;5.10;;;21.00;77.70;;;;;;2351852;53;21105;-77
2021/08/31 08:37:24;;;;;;;7.87;4.50;;;21.00;77.00;;;;;;2354714;53;20898;-72
2021/08/31 08:39:51;;;;;;;7.10;4.43;;;21.10;76.70;;;;;;2354809;53;21532;-72
2021/08/31 08:42:17;;;;;;;7.55;4.45;;;21.00;76.20;;;;;;2359307;52;21046;-73
2021/08/31 08:44:48;;;;;;;6.32;4.40;;;21.10;76.00;;;;;;2517109;52;22010;-72
2021/08/31 08:47:17;;;;;;;6.93;4.85;;;21.10;75.30;;;;;;2353424;53;21008;-71
2021/08/31 08:49:45;;;;;;;6.10;4.60;;;21.10;76.10;;;;;;2357392;52;20990;-71
2021/08/31 08:52:11;;;;;;;5.60;4.12;;;21.10;76.30;;;;;;2353761;53;21584;-69
2021/08/31 08:54:39;;;;;;;7.37;4.57;;;21.10;76.40;;;;;;2597143;52;20929;-72
2021/08/31 08:57:06;;;;;;;5.90;4.50;;;21.10;76.70;;;;;;2603299;52;20990;-71
2021/08/31 08:59:32;;;;;;;5.60;4.30;;;21.20;77.00;;;;;;2392331;52;20973;-72
2021/08/31 09:01:58;;;;;;;6.60;4.32;;;21.30;77.00;;;;;;2357193;52;21040;-69
2021/08/31 09:04:44;;;;;;;6.10;4.35;;;21.30;76.40;;;;;;2355719;53;20997;-70
2021/08/31 09:07:24;;;;;;;5.18;3.75;;;21.40;74.70;;;;;;2355379;52;21013;-69
2021/08/31 09:10:10;;;;;;;6.50;3.60;;;21.40;75.20;;;;;;2336622;53;21049;-73
2021/08/31 09:12:36;;;;;;;5.35;3.70;;;21.40;75.80;;;;;;2355997;53;21088;-71
2021/08/31 09:15:28;;;;;;;5.65;4.15;;;21.40;76.10;;;;;;2360016;52;20994;-73
2021/08/31 09:18:48;;;;;;;6.10;3.83;;;21.50;74.80;;;;;;2359259;53;20957;-73
2021/08/31 09:21:20;;;;;;;5.15;3.60;;;21.60;75.00;;;;;;2360100;53;21053;-71
2021/08/31 09:23:51;;;;;;;6.37;4.30;;;21.60;76.80;;;;;;2355500;53;21049;-72
2021/08/31 09:26:21;;;;;;;5.65;4.18;;;21.70;76.40;;;;;;2363805;52;21987;-70
2021/08/31 09:28:47;;;;;;;6.43;3.78;;;21.80;76.30;;;;;;2354248;53;21951;-72
2021/08/31 09:31:21;;;;;;;5.62;4.22;;;21.80;75.90;;;;;;2356318;53;20989;-72
2021/08/31 09:33:49;;;;;;;7.78;4.15;;;21.80;75.30;;;;;;2356787;52;21009;-71
2021/08/31 09:36:22;;;;;;;6.43;3.85;;;21.80;75.50;;;;;;2361460;52;22561;-68
2021/08/31 09:38:59;;;;;;;5.43;3.97;;;21.90;75.00;;;;;;2352430;53;20918;-69
2021/08/31 09:41:38;;;;;;;5.85;3.80;;;21.80;74.50;;;;;;2359167;53;20955;-71
2021/08/31 09:44:38;;;;;;;5.47;3.87;;;21.90;75.70;;;;;;2352464;53;21099;-70
2021/08/31 09:47:04;;;;;;;10.95;4.53;;;22.00;75.00;;;;;;2353462;53;20941;-73
2021/08/31 09:49:39;;;;;;;7.30;3.90;;;22.10;76.30;;;;;;2356748;53;20969;-74
2021/08/31 09:52:12;;;;;;;6.60;4.22;;;22.10;75.50;;;;;;2352677;53;20942;-70
2021/08/31 09:54:41;;;;;;;7.30;4.50;;;22.20;75.20;;;;;;2359758;52;21066;-72
2021/08/31 09:57:39;;;;;;;5.72;3.83;;;22.20;75.30;;;;;;2346790;53;20926;-71
2021/08/31 10:00:10;;;;;;;6.30;3.83;;;22.20;73.40;;;;;;2440355;52;21917;-70
2021/08/31 10:02:37;;;;;;;8.57;4.20;;;22.20;73.80;;;;;;2352731;53;21013;-74
2021/08/31 10:05:05;;;;;;;5.57;3.85;;;22.20;74.70;;;;;;2360318;53;21041;-73
2021/08/31 10:07:31;;;;;;;5.95;4.50;;;22.20;74.00;;;;;;2334370;53;21552;-73
2021/08/31 10:09:57;;;;;;;6.72;3.95;;;22.10;73.80;;;;;;2359130;52;20942;-74
2021/08/31 10:12:24;;;;;;;5.50;3.53;;;22.10;73.90;;;;;;2353359;52;20914;-71
2021/08/31 10:14:55;;;;;;;6.25;3.85;;;22.10;74.10;;;;;;2352338;52;20985;-72
2021/08/31 10:17:25;;;;;;;7.32;3.78;;;22.10;73.80;;;;;;2355729;52;21053;-70
2021/08/31 10:20:02;;;;;;;5.28;3.42;;;22.20;74.00;;;;;;2344129;53;21025;-72
2021/08/31 10:22:28;;;;;;;5.57;3.17;;;22.20;74.60;;;;;;2472816;52;21033;-74
2021/08/31 10:24:55;;;;;;;4.93;3.35;;;22.20;74.90;;;;;;2352284;53;20949;-72
2021/08/31 10:28:27;;;;;;;4.07;2.90;;;22.30;75.00;;;;;;2352455;53;21012;-74
2021/08/31 10:30:55;;;;;;;5.60;3.35;;;22.40;73.60;;;;;;2361992;52;21886;-73
2021/08/31 10:35:21;;;;;;;4.78;3.22;;;22.50;75.10;;;;;;2394038;52;20950;-72
2021/08/31 10:37:48;;;;;;;6.10;4.10;;;22.50;73.60;;;;;;2352227;53;20997;-73
2021/08/31 10:41:34;;;;;;;4.82;3.25;;;22.60;75.70;;;;;;2352137;53;20969;-72
2021/08/31 10:44:00;;;;;;;4.30;2.78;;;22.70;74.00;;;;;;2334625;53;20970;-74
2021/08/31 10:53:26;;;;;;;4.50;3.40;;;22.80;74.80;;;;;;2352724;53;20943;-73
2021/08/31 10:55:54;;;;;;;4.75;2.97;;;22.80;72.70;;;;;;2353329;53;22147;-72
2021/08/31 10:58:37;;;;;;;4.82;3.72;;;22.90;74.30;;;;;;2487131;52;20949;-72
2021/08/31 11:01:12;;;;;;;5.07;3.53;;;22.90;72.80;;;;;;2353760;53;21121;-72
2021/08/31 11:03:39;;;;;;;5.80;4.10;;;22.90;72.70;;;;;;2352060;53;21533;-75
2021/08/31 11:06:14;;;;;;;4.55;3.25;;;22.90;73.30;;;;;;2368069;52;20942;-72
2021/08/31 11:08:40;;;;;;;4.90;3.20;;;22.90;72.20;;;;;;2356322;52;20943;-71
2021/08/31 11:11:16;;;;;;;5.30;3.20;;;22.90;73.00;;;;;;2444433;52;21427;-73
2021/08/31 11:13:55;;;;;;;4.50;3.12;;;22.90;71.90;;;;;;2355348;52;21105;-72
2021/08/31 11:16:28;;;;;;;4.32;3.20;;;22.90;71.80;;;;;;2357103;52;20993;-72
2021/08/31 11:18:54;;;;;;;5.68;3.40;;;22.90;71.80;;;;;;2356185;52;22083;-74
2021/08/31 11:21:21;;;;;;;4.50;3.03;;;22.80;72.50;;;;;;2424321;52;21017;-72
2021/08/31 11:23:47;;;;;;;4.65;3.15;;;22.80;72.50;;;;;;2321699;53;1812256;-71
2021/08/31 11:26:24;;;;;;;5.53;3.33;;;22.90;72.50;;;;;;2356564;52;21800;-72
2021/08/31 11:28:52;;;;;;;4.87;3.58;;;22.90;71.60;;;;;;2351324;53;22011;-73
2021/08/31 11:31:24;;;;;;;4.22;2.87;;;22.90;72.50;;;;;;2352109;53;20922;-71
2021/08/31 11:33:52;;;;;;;5.05;3.15;;;22.90;72.40;;;;;;2356111;52;20934;-73
2021/08/31 11:36:22;;;;;;;4.78;3.10;;;23.00;73.50;;;;;;2375098;52;21596;-72
2021/08/31 11:38:53;;;;;;;4.60;3.20;;;23.10;73.50;;;;;;2365849;52;22183;-73
2021/08/31 11:42:02;;;;;;;4.95;3.37;;;23.20;73.10;;;;;;2352388;53;20930;-72
2021/08/31 11:44:28;;;;;;;6.55;3.50;;;23.20;71.40;;;;;;2459768;52;21540;-72
2021/08/31 11:46:55;;;;;;;5.10;3.10;;;23.30;73.70;;;;;;2373085;52;22027;-73
2021/08/31 11:49:26;;;;;;;4.45;3.22;;;23.40;73.50;;;;;;2358226;52;21117;-75
2021/08/31 11:52:21;;;;;;;4.90;3.15;;;23.50;72.90;;;;;;2352716;53;20981;-72
2021/08/31 11:54:55;;;;;;;4.53;3.22;;;23.60;71.20;;;;;;2352035;53;20973;-73
2021/08/31 11:57:27;;;;;;;4.62;3.00;;;23.60;72.00;;;;;;2351880;53;20954;-69
2021/08/31 11:59:54;;;;;;;4.43;2.90;;;23.70;72.20;;;;;;2373827;52;20935;-73
2021/08/31 12:02:25;;;;;;;5.60;3.33;;;23.70;72.30;;;;;;2352603;53;21088;-74
2021/08/31 12:05:09;;;;;;;4.93;3.33;;;23.80;71.60;;;;;;2352296;53;20929;-73
2021/08/31 12:07:42;;;;;;;4.43;3.42;;;23.80;70.50;;;;;;2332810;53;20918;-73
2021/08/31 12:10:11;;;;;;;5.35;3.72;;;23.80;70.50;;;;;;2355959;53;20914;-72
2021/08/31 12:12:38;;;;;;;7.43;3.78;;;23.80;70.60;;;;;;2352096;53;20950;-71
2021/08/31 12:15:06;;;;;;;5.18;3.60;;;23.80;70.50;;;;;;2530769;53;21548;-73
2021/08/31 12:17:43;;;;;;;4.90;3.10;;;23.80;70.70;;;;;;2352017;53;20925;-73
2021/08/31 12:20:14;;;;;;;5.18;3.55;;;23.80;71.00;;;;;;2412684;52;20961;-73
2021/08/31 12:22:42;;;;;;;5.82;3.53;;;23.80;70.80;;;;;;2351652;52;20953;-71
2021/08/31 12:25:09;;;;;;;4.03;2.95;;;23.90;70.90;;;;;;2421351;52;21957;-70
2021/08/31 12:27:41;;;;;;;4.12;2.90;;;23.80;70.30;;;;;;2331969;53;20977;-75
2021/08/31 12:30:42;;;;;;;5.40;3.28;;;23.80;69.40;;;;;;2410427;52;22054;-70
2021/08/31 12:33:10;;;;;;;4.28;2.75;;;23.80;68.40;;;;;;2332510;53;21601;-72
2021/08/31 12:35:44;;;;;;;4.03;2.83;;;23.80;69.90;;;;;;2333035;53;22061;-73
2021/08/31 12:38:23;;;;;;;4.40;3.10;;;23.70;70.00;;;;;;2401095;52;20966;-73
2021/08/31 12:41:21;;;;;;;4.35;2.50;;;23.70;69.10;;;;;;2356847;52;22084;-72
2021/08/31 12:43:51;;;;;;;3.95;2.58;;;23.80;68.70;;;;;;2359930;52;21137;-72
2021/08/31 12:46:29;;;;;;;3.92;2.70;;;23.70;70.50;;;;;;2340468;53;20902;-72
2021/08/31 12:49:17;;;;;;;4.05;2.72;;;23.80;70.30;;;;;;2356214;52;20949;-73
2021/08/31 12:51:54;;;;;;;4.95;2.58;;;23.80;68.90;;;;;;2492637;52;20961;-74
2021/08/31 12:54:28;;;;;;;4.32;2.58;;;23.90;69.30;;;;;;2352237;53;20966;-72
2021/08/31 12:57:02;;;;;;;4.50;2.55;;;23.90;69.80;;;;;;2352081;53;20958;-73
2021/08/31 12:59:33;;;;;;;4.53;2.65;;;24.00;69.60;;;;;;2352397;53;20934;-71
2021/08/31 13:02:02;;;;;;;3.45;2.25;;;24.10;70.10;;;;;;2352595;53;20973;-71
2021/08/31 13:04:29;;;;;;;5.30;2.70;;;24.10;69.90;;;;;;2357235;52;21470;-72
2021/08/31 13:07:20;;;;;;;4.12;2.37;;;24.10;70.00;;;;;;2345108;53;22050;-71
2021/08/31 13:09:47;;;;;;;4.28;2.80;;;24.20;68.30;;;;;;2604779;52;20999;-74